sensor_id;sensor_type;location;lat;lon;timestamp;P1;durP1;ratioP1;P2;durP2;ratioP2
21822;SDS011;11074;48.596;9.238;2023-10-09T00:02:05;13.73;;;4.53;;
21822;SDS011;11074;48.596;9.238;2023-10-09T00:04:36;10.63;;;4.88;;
21822;SDS011;11074;48.596;9.238;2023-10-09T00:07:05;13.20;;;4.88;;
21822;SDS011;11074;48.596;9.238;2023-10-09T00:09:33;13.23;;;4.72;;
21822;SDS011;11074;48.596;9.238;2023-10-09T00:12:18;13.70;;;4.28;;
21822;SDS011;11074;48.596;9.238;2023-10-09T00:14:48;10.63;;;4.80;;
21822;SDS011;11074;48.596;9.238;2023-10-09T00:17:18;11.27;;;4.70;;
21822;SDS011;11074;48.596;9.238;2023-10-09T00:19:45;10.73;;;4.30;;
21822;SDS011;11074;48.596;9.238;2023-10-09T00:22:24;14.13;;;4.63;;
21822;SDS011;11074;48.596;9.238;2023-10-09T00:24:50;13.15;;;5.20;;
21822;SDS011;11074;48.596;9.238;2023-10-09T00:30:01;13.57;;;4.70;;
21822;SDS011;11074;48.596;9.238;2023-10-09T00:32:31;13.20;;;5.00;;
21822;SDS011;11074;48.596;9.238;2023-10-09T00:34:58;13.27;;;4.82;;
21822;SDS011;11074;48.596;9.238;2023-10-09T00:37:44;15.65;;;4.97;;
21822;SDS011;11074;48.596;9.238;2023-10-09T00:40:10;12.82;;;4.80;;
21822;SDS011;11074;48.596;9.238;2023-10-09T00:42:46;15.82;;;4.75;;
21822;SDS011;11074;48.596;9.238;2023-10-09T00:45:13;13.52;;;4.82;;
21822;SDS011;11074;48.596;9.238;2023-10-09T00:47:50;12.10;;;4.65;;
21822;SDS011;11074;48.596;9.238;2023-10-09T00:50:21;11.73;;;4.45;;
21822;SDS011;11074;48.596;9.238;2023-10-09T00:52:49;12.77;;;4.32;;
21822;SDS011;11074;48.596;9.238;2023-10-09T00:55:26;11.73;;;5.10;;
21822;SDS011;11074;48.596;9.238;2023-10-09T00:58:03;13.73;;;4.93;;
21822;SDS011;11074;48.596;9.238;2023-10-09T01:00:37;15.18;;;5.20;;
21822;SDS011;11074;48.596;9.238;2023-10-09T01:03:09;12.85;;;5.05;;
21822;SDS011;11074;48.596;9.238;2023-10-09T01:05:43;13.88;;;4.50;;
21822;SDS011;11074;48.596;9.238;2023-10-09T01:08:33;11.80;;;5.22;;
21822;SDS011;11074;48.596;9.238;2023-10-09T01:11:06;13.50;;;4.55;;
21822;SDS011;11074;48.596;9.238;2023-10-09T01:13:38;16.00;;;4.80;;
21822;SDS011;11074;48.596;9.238;2023-10-09T01:16:15;13.10;;;5.05;;
21822;SDS011;11074;48.596;9.238;2023-10-09T01:18:42;11.70;;;4.70;;
21822;SDS011;11074;48.596;9.238;2023-10-09T01:21:16;13.80;;;4.77;;
21822;SDS011;11074;48.596;9.238;2023-10-09T01:23:51;12.95;;;4.72;;
21822;SDS011;11074;48.596;9.238;2023-10-09T01:26:35;13.77;;;5.22;;
21822;SDS011;11074;48.596;9.238;2023-10-09T01:29:10;16.67;;;5.00;;
21822;SDS011;11074;48.596;9.238;2023-10-09T01:31:53;13.10;;;5.15;;
21822;SDS011;11074;48.596;9.238;2023-10-09T01:34:24;15.73;;;5.15;;
21822;SDS011;11074;48.596;9.238;2023-10-09T01:37:04;13.25;;;4.72;;
21822;SDS011;11074;48.596;9.238;2023-10-09T01:39:36;12.43;;;4.53;;
21822;SDS011;11074;48.596;9.238;2023-10-09T01:42:07;12.48;;;3.97;;
21822;SDS011;11074;48.596;9.238;2023-10-09T01:44:35;13.98;;;4.90;;
21822;SDS011;11074;48.596;9.238;2023-10-09T01:47:08;17.52;;;5.30;;
21822;SDS011;11074;48.596;9.238;2023-10-09T01:49:39;12.23;;;4.40;;
21822;SDS011;11074;48.596;9.238;2023-10-09T01:52:09;11.57;;;4.50;;
21822;SDS011;11074;48.596;9.238;2023-10-09T01:54:42;15.27;;;4.85;;
21822;SDS011;11074;48.596;9.238;2023-10-09T01:57:13;18.55;;;5.07;;
21822;SDS011;11074;48.596;9.238;2023-10-09T01:59:41;11.68;;;4.68;;
21822;SDS011;11074;48.596;9.238;2023-10-09T02:02:09;12.18;;;4.38;;
21822;SDS011;11074;48.596;9.238;2023-10-09T02:04:50;15.63;;;5.00;;
21822;SDS011;11074;48.596;9.238;2023-10-09T02:07:39;14.52;;;4.97;;
21822;SDS011;11074;48.596;9.238;2023-10-09T02:10:16;18.40;;;5.05;;
21822;SDS011;11074;48.596;9.238;2023-10-09T02:12:53;15.80;;;4.95;;
21822;SDS011;11074;48.596;9.238;2023-10-09T02:15:35;13.27;;;4.97;;
21822;SDS011;11074;48.596;9.238;2023-10-09T02:18:06;15.82;;;4.85;;
21822;SDS011;11074;48.596;9.238;2023-10-09T02:20:52;12.40;;;4.65;;
21822;SDS011;11074;48.596;9.238;2023-10-09T02:23:38;13.65;;;4.32;;
21822;SDS011;11074;48.596;9.238;2023-10-09T02:26:06;12.80;;;4.78;;
21822;SDS011;11074;48.596;9.238;2023-10-09T02:28:34;14.63;;;4.70;;
21822;SDS011;11074;48.596;9.238;2023-10-09T02:31:01;13.25;;;4.57;;
21822;SDS011;11074;48.596;9.238;2023-10-09T02:33:37;12.00;;;4.57;;
21822;SDS011;11074;48.596;9.238;2023-10-09T02:36:05;15.38;;;4.45;;
21822;SDS011;11074;48.596;9.238;2023-10-09T02:38:32;15.88;;;4.35;;
21822;SDS011;11074;48.596;9.238;2023-10-09T02:41:00;13.70;;;4.78;;
21822;SDS011;11074;48.596;9.238;2023-10-09T02:43:30;14.13;;;4.40;;
21822;SDS011;11074;48.596;9.238;2023-10-09T02:46:26;15.45;;;4.30;;
21822;SDS011;11074;48.596;9.238;2023-10-09T02:48:55;14.00;;;4.10;;
21822;SDS011;11074;48.596;9.238;2023-10-09T02:51:23;19.88;;;4.65;;
21822;SDS011;11074;48.596;9.238;2023-10-09T02:53:55;13.60;;;4.40;;
21822;SDS011;11074;48.596;9.238;2023-10-09T02:56:32;12.35;;;4.68;;
21822;SDS011;11074;48.596;9.238;2023-10-09T02:59:07;15.80;;;4.90;;
21822;SDS011;11074;48.596;9.238;2023-10-09T03:01:39;21.48;;;5.20;;
21822;SDS011;11074;48.596;9.238;2023-10-09T03:04:06;13.13;;;4.22;;
21822;SDS011;11074;48.596;9.238;2023-10-09T03:06:35;18.88;;;5.25;;
21822;SDS011;11074;48.596;9.238;2023-10-09T03:09:08;14.48;;;4.68;;
21822;SDS011;11074;48.596;9.238;2023-10-09T03:11:46;14.60;;;4.57;;
21822;SDS011;11074;48.596;9.238;2023-10-09T03:14:18;14.95;;;4.90;;
21822;SDS011;11074;48.596;9.238;2023-10-09T03:16:45;15.15;;;4.35;;
21822;SDS011;11074;48.596;9.238;2023-10-09T03:19:14;14.35;;;4.65;;
21822;SDS011;11074;48.596;9.238;2023-10-09T03:21:41;16.10;;;4.68;;
21822;SDS011;11074;48.596;9.238;2023-10-09T03:24:07;17.10;;;5.40;;
21822;SDS011;11074;48.596;9.238;2023-10-09T03:26:33;14.13;;;4.80;;
21822;SDS011;11074;48.596;9.238;2023-10-09T03:28:59;14.13;;;4.47;;
21822;SDS011;11074;48.596;9.238;2023-10-09T03:31:34;12.65;;;4.25;;
21822;SDS011;11074;48.596;9.238;2023-10-09T03:34:01;12.48;;;4.53;;
21822;SDS011;11074;48.596;9.238;2023-10-09T03:36:28;17.38;;;4.68;;
21822;SDS011;11074;48.596;9.238;2023-10-09T03:38:58;15.77;;;4.43;;
21822;SDS011;11074;48.596;9.238;2023-10-09T03:41:25;15.70;;;5.45;;
21822;SDS011;11074;48.596;9.238;2023-10-09T03:43:52;16.83;;;4.80;;
21822;SDS011;11074;48.596;9.238;2023-10-09T03:46:21;11.43;;;4.43;;
21822;SDS011;11074;48.596;9.238;2023-10-09T03:48:51;14.00;;;4.50;;
21822;SDS011;11074;48.596;9.238;2023-10-09T03:51:22;16.95;;;5.20;;
21822;SDS011;11074;48.596;9.238;2023-10-09T03:53:48;15.05;;;4.90;;
21822;SDS011;11074;48.596;9.238;2023-10-09T03:56:17;16.85;;;5.00;;
21822;SDS011;11074;48.596;9.238;2023-10-09T03:58:46;14.52;;;5.20;;
21822;SDS011;11074;48.596;9.238;2023-10-09T04:01:15;18.25;;;5.07;;
21822;SDS011;11074;48.596;9.238;2023-10-09T04:03:58;13.55;;;4.80;;
21822;SDS011;11074;48.596;9.238;2023-10-09T04:06:29;11.45;;;4.80;;
21822;SDS011;11074;48.596;9.238;2023-10-09T04:08:59;11.73;;;4.50;;
21822;SDS011;11074;48.596;9.238;2023-10-09T04:11:52;14.07;;;4.50;;
21822;SDS011;11074;48.596;9.238;2023-10-09T04:14:35;12.57;;;4.78;;
21822;SDS011;11074;48.596;9.238;2023-10-09T04:17:15;14.65;;;4.50;;
21822;SDS011;11074;48.596;9.238;2023-10-09T04:19:47;13.98;;;4.50;;
21822;SDS011;11074;48.596;9.238;2023-10-09T04:22:14;11.27;;;4.45;;
21822;SDS011;11074;48.596;9.238;2023-10-09T04:24:56;22.33;;;5.10;;
21822;SDS011;11074;48.596;9.238;2023-10-09T04:27:22;13.60;;;4.55;;
21822;SDS011;11074;48.596;9.238;2023-10-09T04:29:52;16.08;;;4.75;;
21822;SDS011;11074;48.596;9.238;2023-10-09T04:32:19;16.45;;;5.32;;
21822;SDS011;11074;48.596;9.238;2023-10-09T04:34:49;15.48;;;4.65;;
21822;SDS011;11074;48.596;9.238;2023-10-09T04:37:36;17.15;;;4.82;;
21822;SDS011;11074;48.596;9.238;2023-10-09T04:40:03;15.63;;;4.90;;
21822;SDS011;11074;48.596;9.238;2023-10-09T04:42:52;18.00;;;4.68;;
21822;SDS011;11074;48.596;9.238;2023-10-09T04:45:23;11.85;;;4.82;;
21822;SDS011;11074;48.596;9.238;2023-10-09T04:48:08;14.60;;;5.05;;
21822;SDS011;11074;48.596;9.238;2023-10-09T04:50:34;17.17;;;4.40;;
21822;SDS011;11074;48.596;9.238;2023-10-09T04:53:01;16.02;;;5.30;;
21822;SDS011;11074;48.596;9.238;2023-10-09T04:55:42;15.05;;;4.32;;
21822;SDS011;11074;48.596;9.238;2023-10-09T04:58:23;15.70;;;4.60;;
21822;SDS011;11074;48.596;9.238;2023-10-09T05:00:53;13.25;;;5.13;;
21822;SDS011;11074;48.596;9.238;2023-10-09T05:03:22;14.30;;;4.55;;
21822;SDS011;11074;48.596;9.238;2023-10-09T05:06:08;11.90;;;4.63;;
21822;SDS011;11074;48.596;9.238;2023-10-09T05:08:52;15.70;;;4.28;;
21822;SDS011;11074;48.596;9.238;2023-10-09T05:11:21;21.05;;;4.97;;
21822;SDS011;11074;48.596;9.238;2023-10-09T05:14:18;16.48;;;4.55;;
21822;SDS011;11074;48.596;9.238;2023-10-09T05:16:52;17.95;;;4.47;;
21822;SDS011;11074;48.596;9.238;2023-10-09T05:19:19;15.05;;;4.85;;
21822;SDS011;11074;48.596;9.238;2023-10-09T05:22:07;13.07;;;4.43;;
21822;SDS011;11074;48.596;9.238;2023-10-09T05:24:57;13.35;;;4.65;;
21822;SDS011;11074;48.596;9.238;2023-10-09T05:27:23;15.95;;;4.95;;
21822;SDS011;11074;48.596;9.238;2023-10-09T05:30:09;16.23;;;4.65;;
21822;SDS011;11074;48.596;9.238;2023-10-09T05:32:49;11.30;;;4.43;;
21822;SDS011;11074;48.596;9.238;2023-10-09T05:35:20;15.55;;;4.90;;
21822;SDS011;11074;48.596;9.238;2023-10-09T05:38:04;15.60;;;5.57;;
21822;SDS011;11074;48.596;9.238;2023-10-09T05:40:48;15.82;;;5.53;;
21822;SDS011;11074;48.596;9.238;2023-10-09T05:43:19;17.15;;;6.00;;
21822;SDS011;11074;48.596;9.238;2023-10-09T05:46:06;19.55;;;6.55;;
21822;SDS011;11074;48.596;9.238;2023-10-09T05:48:35;22.80;;;6.32;;
21822;SDS011;11074;48.596;9.238;2023-10-09T05:51:04;14.10;;;5.50;;
21822;SDS011;11074;48.596;9.238;2023-10-09T05:53:55;17.38;;;5.78;;
21822;SDS011;11074;48.596;9.238;2023-10-09T05:56:37;15.05;;;5.28;;
21822;SDS011;11074;48.596;9.238;2023-10-09T05:59:22;18.15;;;4.72;;
21822;SDS011;11074;48.596;9.238;2023-10-09T06:02:20;16.15;;;4.95;;
21822;SDS011;11074;48.596;9.238;2023-10-09T06:05:06;16.58;;;5.22;;
21822;SDS011;11074;48.596;9.238;2023-10-09T06:07:52;14.50;;;5.18;;
21822;SDS011;11074;48.596;9.238;2023-10-09T06:10:37;14.95;;;4.65;;
21822;SDS011;11074;48.596;9.238;2023-10-09T06:13:06;19.17;;;5.40;;
21822;SDS011;11074;48.596;9.238;2023-10-09T06:15:51;16.85;;;4.72;;
21822;SDS011;11074;48.596;9.238;2023-10-09T06:18:34;17.50;;;5.30;;
21822;SDS011;11074;48.596;9.238;2023-10-09T06:20:59;17.88;;;5.13;;
21822;SDS011;11074;48.596;9.238;2023-10-09T06:23:51;13.82;;;4.88;;
21822;SDS011;11074;48.596;9.238;2023-10-09T06:26:55;18.50;;;5.20;;
21822;SDS011;11074;48.596;9.238;2023-10-09T06:29:24;17.30;;;4.90;;
21822;SDS011;11074;48.596;9.238;2023-10-09T06:32:09;14.82;;;5.25;;
21822;SDS011;11074;48.596;9.238;2023-10-09T06:34:59;19.98;;;5.53;;
21822;SDS011;11074;48.596;9.238;2023-10-09T06:37:47;15.55;;;4.32;;
21822;SDS011;11074;48.596;9.238;2023-10-09T06:40:26;15.50;;;4.93;;
21822;SDS011;11074;48.596;9.238;2023-10-09T06:43:04;15.52;;;5.15;;
21822;SDS011;11074;48.596;9.238;2023-10-09T06:45:57;21.58;;;5.18;;
21822;SDS011;11074;48.596;9.238;2023-10-09T06:48:24;21.42;;;5.10;;
21822;SDS011;11074;48.596;9.238;2023-10-09T06:51:03;19.02;;;5.30;;
21822;SDS011;11074;48.596;9.238;2023-10-09T06:54:02;14.77;;;5.30;;
21822;SDS011;11074;48.596;9.238;2023-10-09T06:56:34;14.60;;;4.90;;
21822;SDS011;11074;48.596;9.238;2023-10-09T06:59:01;18.45;;;5.47;;
21822;SDS011;11074;48.596;9.238;2023-10-09T07:01:49;16.40;;;4.63;;
21822;SDS011;11074;48.596;9.238;2023-10-09T07:04:35;16.65;;;4.82;;
21822;SDS011;11074;48.596;9.238;2023-10-09T07:07:01;21.20;;;5.03;;
21822;SDS011;11074;48.596;9.238;2023-10-09T07:09:32;19.65;;;5.40;;
21822;SDS011;11074;48.596;9.238;2023-10-09T07:12:08;20.08;;;5.30;;
21822;SDS011;11074;48.596;9.238;2023-10-09T07:14:38;14.85;;;5.22;;
21822;SDS011;11074;48.596;9.238;2023-10-09T07:17:07;17.52;;;5.43;;
21822;SDS011;11074;48.596;9.238;2023-10-09T07:19:47;17.50;;;5.40;;
21822;SDS011;11074;48.596;9.238;2023-10-09T07:22:14;17.15;;;4.90;;
21822;SDS011;11074;48.596;9.238;2023-10-09T07:24:54;30.95;;;6.30;;
21822;SDS011;11074;48.596;9.238;2023-10-09T07:27:30;24.58;;;6.20;;
21822;SDS011;11074;48.596;9.238;2023-10-09T07:30:10;15.70;;;4.75;;
21822;SDS011;11074;48.596;9.238;2023-10-09T07:33:00;17.45;;;5.65;;
21822;SDS011;11074;48.596;9.238;2023-10-09T07:35:35;15.77;;;5.25;;
21822;SDS011;11074;48.596;9.238;2023-10-09T07:40:48;16.42;;;4.97;;
21822;SDS011;11074;48.596;9.238;2023-10-09T07:43:32;16.35;;;5.22;;
21822;SDS011;11074;48.596;9.238;2023-10-09T07:49:00;16.52;;;5.65;;
21822;SDS011;11074;48.596;9.238;2023-10-09T07:51:37;14.32;;;4.85;;
21822;SDS011;11074;48.596;9.238;2023-10-09T07:54:08;17.23;;;5.20;;
21822;SDS011;11074;48.596;9.238;2023-10-09T07:56:39;21.02;;;5.70;;
21822;SDS011;11074;48.596;9.238;2023-10-09T07:59:10;16.30;;;5.35;;
21822;SDS011;11074;48.596;9.238;2023-10-09T08:01:41;15.68;;;4.93;;
21822;SDS011;11074;48.596;9.238;2023-10-09T08:04:18;20.13;;;5.50;;
21822;SDS011;11074;48.596;9.238;2023-10-09T08:07:07;17.80;;;5.03;;
21822;SDS011;11074;48.596;9.238;2023-10-09T08:09:44;16.60;;;5.57;;
21822;SDS011;11074;48.596;9.238;2023-10-09T08:12:15;19.58;;;5.05;;
21822;SDS011;11074;48.596;9.238;2023-10-09T08:15:00;16.25;;;5.40;;
21822;SDS011;11074;48.596;9.238;2023-10-09T08:17:44;17.15;;;5.22;;
21822;SDS011;11074;48.596;9.238;2023-10-09T08:20:27;14.93;;;5.05;;
21822;SDS011;11074;48.596;9.238;2023-10-09T08:23:01;17.13;;;5.03;;
21822;SDS011;11074;48.596;9.238;2023-10-09T08:25:30;19.13;;;5.90;;
21822;SDS011;11074;48.596;9.238;2023-10-09T08:28:01;11.68;;;4.88;;
21822;SDS011;11074;48.596;9.238;2023-10-09T08:30:40;16.75;;;5.53;;
21822;SDS011;11074;48.596;9.238;2023-10-09T08:33:13;15.15;;;4.95;;
21822;SDS011;11074;48.596;9.238;2023-10-09T08:35:53;15.90;;;5.55;;
21822;SDS011;11074;48.596;9.238;2023-10-09T08:38:27;16.98;;;5.07;;
21822;SDS011;11074;48.596;9.238;2023-10-09T08:41:05;22.17;;;5.57;;
21822;SDS011;11074;48.596;9.238;2023-10-09T08:43:49;14.98;;;5.13;;
21822;SDS011;11074;48.596;9.238;2023-10-09T08:46:24;20.83;;;4.90;;
21822;SDS011;11074;48.596;9.238;2023-10-09T08:48:54;15.77;;;5.15;;
21822;SDS011;11074;48.596;9.238;2023-10-09T08:51:24;16.75;;;4.95;;
21822;SDS011;11074;48.596;9.238;2023-10-09T08:53:51;21.25;;;5.85;;
21822;SDS011;11074;48.596;9.238;2023-10-09T08:56:18;15.27;;;5.00;;
21822;SDS011;11074;48.596;9.238;2023-10-09T08:58:55;17.17;;;5.00;;
21822;SDS011;11074;48.596;9.238;2023-10-09T09:03:49;22.25;;;5.15;;
21822;SDS011;11074;48.596;9.238;2023-10-09T09:06:20;17.25;;;5.15;;
21822;SDS011;11074;48.596;9.238;2023-10-09T09:08:48;19.33;;;5.10;;
21822;SDS011;11074;48.596;9.238;2023-10-09T09:11:20;18.35;;;5.53;;
21822;SDS011;11074;48.596;9.238;2023-10-09T09:16:21;22.58;;;5.10;;
21822;SDS011;11074;48.596;9.238;2023-10-09T09:21:38;17.80;;;5.82;;
21822;SDS011;11074;48.596;9.238;2023-10-09T09:24:08;20.30;;;4.95;;
21822;SDS011;11074;48.596;9.238;2023-10-09T09:27:09;18.60;;;4.75;;
21822;SDS011;11074;48.596;9.238;2023-10-09T09:32:04;19.42;;;5.32;;
21822;SDS011;11074;48.596;9.238;2023-10-09T09:34:51;15.98;;;4.60;;
21822;SDS011;11074;48.596;9.238;2023-10-09T09:37:30;17.70;;;5.05;;
21822;SDS011;11074;48.596;9.238;2023-10-09T09:40:09;20.98;;;5.60;;
21822;SDS011;11074;48.596;9.238;2023-10-09T09:42:58;17.38;;;4.85;;
21822;SDS011;11074;48.596;9.238;2023-10-09T09:45:30;21.77;;;5.35;;
21822;SDS011;11074;48.596;9.238;2023-10-09T09:48:03;24.52;;;5.57;;
21822;SDS011;11074;48.596;9.238;2023-10-09T09:50:40;20.38;;;5.40;;
21822;SDS011;11074;48.596;9.238;2023-10-09T09:55:42;19.08;;;5.13;;
21822;SDS011;11074;48.596;9.238;2023-10-09T09:58:21;21.13;;;4.72;;
21822;SDS011;11074;48.596;9.238;2023-10-09T10:00:52;13.88;;;3.70;;
21822;SDS011;11074;48.596;9.238;2023-10-09T10:03:29;20.40;;;4.45;;
21822;SDS011;11074;48.596;9.238;2023-10-09T10:05:59;17.17;;;4.03;;
21822;SDS011;11074;48.596;9.238;2023-10-09T10:08:34;20.45;;;4.18;;
21822;SDS011;11074;48.596;9.238;2023-10-09T10:11:04;12.77;;;3.80;;
21822;SDS011;11074;48.596;9.238;2023-10-09T10:16:05;14.82;;;3.55;;
21822;SDS011;11074;48.596;9.238;2023-10-09T10:21:46;15.77;;;3.45;;
21822;SDS011;11074;48.596;9.238;2023-10-09T10:27:19;16.85;;;3.53;;
21822;SDS011;11074;48.596;9.238;2023-10-09T10:35:16;19.55;;;3.83;;
21822;SDS011;11074;48.596;9.238;2023-10-09T10:37:45;18.90;;;3.95;;
21822;SDS011;11074;48.596;9.238;2023-10-09T10:40:28;21.85;;;3.80;;
21822;SDS011;11074;48.596;9.238;2023-10-09T10:43:16;17.50;;;3.72;;
21822;SDS011;11074;48.596;9.238;2023-10-09T10:46:02;19.67;;;4.50;;
21822;SDS011;11074;48.596;9.238;2023-10-09T10:48:38;18.20;;;4.13;;
21822;SDS011;11074;48.596;9.238;2023-10-09T10:51:05;19.33;;;3.75;;
21822;SDS011;11074;48.596;9.238;2023-10-09T10:53:31;24.80;;;4.35;;
21822;SDS011;11074;48.596;9.238;2023-10-09T10:56:12;19.67;;;4.00;;
21822;SDS011;11074;48.596;9.238;2023-10-09T10:58:42;26.67;;;4.60;;
21822;SDS011;11074;48.596;9.238;2023-10-09T11:01:36;21.25;;;4.25;;
21822;SDS011;11074;48.596;9.238;2023-10-09T11:07:04;13.57;;;3.67;;
21822;SDS011;11074;48.596;9.238;2023-10-09T11:09:53;24.58;;;4.10;;
21822;SDS011;11074;48.596;9.238;2023-10-09T11:12:26;21.38;;;4.35;;
21822;SDS011;11074;48.596;9.238;2023-10-09T11:15:04;21.85;;;4.05;;
21822;SDS011;11074;48.596;9.238;2023-10-09T11:17:32;26.00;;;5.03;;
21822;SDS011;11074;48.596;9.238;2023-10-09T11:20:00;27.70;;;5.05;;
21822;SDS011;11074;48.596;9.238;2023-10-09T11:22:52;22.95;;;4.32;;
21822;SDS011;11074;48.596;9.238;2023-10-09T11:25:39;21.95;;;4.40;;
21822;SDS011;11074;48.596;9.238;2023-10-09T11:28:21;24.73;;;4.78;;
21822;SDS011;11074;48.596;9.238;2023-10-09T11:31:10;22.88;;;4.57;;
21822;SDS011;11074;48.596;9.238;2023-10-09T11:33:43;28.38;;;5.10;;
21822;SDS011;11074;48.596;9.238;2023-10-09T11:36:20;20.52;;;4.85;;
21822;SDS011;11074;48.596;9.238;2023-10-09T11:38:59;25.27;;;4.47;;
21822;SDS011;11074;48.596;9.238;2023-10-09T11:41:42;21.95;;;4.82;;
21822;SDS011;11074;48.596;9.238;2023-10-09T11:44:09;23.73;;;4.40;;
21822;SDS011;11074;48.596;9.238;2023-10-09T11:46:57;20.40;;;4.75;;
21822;SDS011;11074;48.596;9.238;2023-10-09T11:49:46;21.05;;;4.97;;
21822;SDS011;11074;48.596;9.238;2023-10-09T11:52:28;21.75;;;4.85;;
21822;SDS011;11074;48.596;9.238;2023-10-09T11:55:01;24.50;;;4.57;;
21822;SDS011;11074;48.596;9.238;2023-10-09T11:57:28;21.63;;;4.63;;
21822;SDS011;11074;48.596;9.238;2023-10-09T11:59:58;27.33;;;5.18;;
21822;SDS011;11074;48.596;9.238;2023-10-09T12:02:25;19.40;;;4.32;;
21822;SDS011;11074;48.596;9.238;2023-10-09T12:04:52;20.70;;;4.55;;
21822;SDS011;11074;48.596;9.238;2023-10-09T12:07:23;24.52;;;4.63;;
21822;SDS011;11074;48.596;9.238;2023-10-09T12:09:50;25.20;;;5.07;;
21822;SDS011;11074;48.596;9.238;2023-10-09T12:12:21;29.15;;;5.05;;
21822;SDS011;11074;48.596;9.238;2023-10-09T12:14:51;23.02;;;4.57;;
21822;SDS011;11074;48.596;9.238;2023-10-09T12:17:18;17.83;;;4.30;;
21822;SDS011;11074;48.596;9.238;2023-10-09T12:19:44;21.45;;;4.45;;
21822;SDS011;11074;48.596;9.238;2023-10-09T12:22:09;20.35;;;4.28;;
21822;SDS011;11074;48.596;9.238;2023-10-09T12:24:36;21.55;;;4.95;;
21822;SDS011;11074;48.596;9.238;2023-10-09T12:27:02;22.15;;;4.47;;
21822;SDS011;11074;48.596;9.238;2023-10-09T12:29:34;25.30;;;4.05;;
21822;SDS011;11074;48.596;9.238;2023-10-09T12:32:00;26.33;;;4.85;;
21822;SDS011;11074;48.596;9.238;2023-10-09T12:34:28;26.13;;;4.47;;
21822;SDS011;11074;48.596;9.238;2023-10-09T12:36:56;20.77;;;4.45;;
21822;SDS011;11074;48.596;9.238;2023-10-09T12:39:26;27.20;;;4.93;;
21822;SDS011;11074;48.596;9.238;2023-10-09T12:41:58;20.60;;;4.47;;
21822;SDS011;11074;48.596;9.238;2023-10-09T12:44:31;20.70;;;5.30;;
21822;SDS011;11074;48.596;9.238;2023-10-09T12:46:59;22.70;;;4.72;;
21822;SDS011;11074;48.596;9.238;2023-10-09T12:49:29;23.83;;;4.80;;
21822;SDS011;11074;48.596;9.238;2023-10-09T12:51:55;20.25;;;4.43;;
21822;SDS011;11074;48.596;9.238;2023-10-09T12:54:22;22.40;;;4.47;;
21822;SDS011;11074;48.596;9.238;2023-10-09T12:56:52;23.02;;;4.60;;
21822;SDS011;11074;48.596;9.238;2023-10-09T12:59:19;22.25;;;4.57;;
21822;SDS011;11074;48.596;9.238;2023-10-09T13:01:46;18.63;;;4.25;;
21822;SDS011;11074;48.596;9.238;2023-10-09T13:04:17;23.67;;;4.25;;
21822;SDS011;11074;48.596;9.238;2023-10-09T13:06:47;20.02;;;4.80;;
21822;SDS011;11074;48.596;9.238;2023-10-09T13:09:17;20.73;;;4.20;;
21822;SDS011;11074;48.596;9.238;2023-10-09T13:11:50;29.65;;;5.05;;
21822;SDS011;11074;48.596;9.238;2023-10-09T13:14:16;24.75;;;4.30;;
21822;SDS011;11074;48.596;9.238;2023-10-09T13:16:44;22.67;;;4.30;;
21822;SDS011;11074;48.596;9.238;2023-10-09T13:19:10;22.92;;;4.85;;
21822;SDS011;11074;48.596;9.238;2023-10-09T13:21:37;24.75;;;4.55;;
21822;SDS011;11074;48.596;9.238;2023-10-09T13:24:05;25.13;;;5.47;;
21822;SDS011;11074;48.596;9.238;2023-10-09T13:26:39;24.15;;;4.45;;
21822;SDS011;11074;48.596;9.238;2023-10-09T13:29:06;27.05;;;5.10;;
21822;SDS011;11074;48.596;9.238;2023-10-09T13:31:36;20.30;;;4.88;;
21822;SDS011;11074;48.596;9.238;2023-10-09T13:34:03;25.83;;;4.75;;
21822;SDS011;11074;48.596;9.238;2023-10-09T13:36:35;27.02;;;4.60;;
21822;SDS011;11074;48.596;9.238;2023-10-09T13:39:08;23.05;;;4.63;;
21822;SDS011;11074;48.596;9.238;2023-10-09T13:41:52;24.45;;;4.75;;
21822;SDS011;11074;48.596;9.238;2023-10-09T13:44:26;22.52;;;4.72;;
21822;SDS011;11074;48.596;9.238;2023-10-09T13:46:56;29.45;;;4.90;;
21822;SDS011;11074;48.596;9.238;2023-10-09T13:49:23;26.35;;;4.80;;
21822;SDS011;11074;48.596;9.238;2023-10-09T13:51:54;23.58;;;4.85;;
21822;SDS011;11074;48.596;9.238;2023-10-09T13:54:26;22.98;;;4.68;;
21822;SDS011;11074;48.596;9.238;2023-10-09T13:57:13;19.52;;;4.85;;
21822;SDS011;11074;48.596;9.238;2023-10-09T13:59:40;20.45;;;4.50;;
21822;SDS011;11074;48.596;9.238;2023-10-09T14:02:09;18.30;;;3.72;;
21822;SDS011;11074;48.596;9.238;2023-10-09T14:04:35;26.02;;;4.88;;
21822;SDS011;11074;48.596;9.238;2023-10-09T14:07:01;18.15;;;4.45;;
21822;SDS011;11074;48.596;9.238;2023-10-09T14:09:30;23.70;;;5.32;;
21822;SDS011;11074;48.596;9.238;2023-10-09T14:11:56;25.70;;;5.40;;
21822;SDS011;11074;48.596;9.238;2023-10-09T14:14:39;24.67;;;5.22;;
21822;SDS011;11074;48.596;9.238;2023-10-09T14:17:13;21.98;;;4.57;;
21822;SDS011;11074;48.596;9.238;2023-10-09T14:19:51;22.67;;;4.60;;
21822;SDS011;11074;48.596;9.238;2023-10-09T14:22:19;19.65;;;4.50;;
21822;SDS011;11074;48.596;9.238;2023-10-09T14:24:54;16.13;;;4.80;;
21822;SDS011;11074;48.596;9.238;2023-10-09T14:27:21;18.17;;;4.43;;
21822;SDS011;11074;48.596;9.238;2023-10-09T14:29:55;21.65;;;4.57;;
21822;SDS011;11074;48.596;9.238;2023-10-09T14:32:23;25.73;;;5.10;;
21822;SDS011;11074;48.596;9.238;2023-10-09T14:34:54;18.10;;;5.40;;
21822;SDS011;11074;48.596;9.238;2023-10-09T14:37:25;25.02;;;4.82;;
21822;SDS011;11074;48.596;9.238;2023-10-09T14:39:52;23.25;;;4.80;;
21822;SDS011;11074;48.596;9.238;2023-10-09T14:42:18;21.48;;;5.35;;
21822;SDS011;11074;48.596;9.238;2023-10-09T14:44:47;17.75;;;5.07;;
21822;SDS011;11074;48.596;9.238;2023-10-09T14:47:15;18.83;;;4.78;;
21822;SDS011;11074;48.596;9.238;2023-10-09T14:49:46;19.52;;;5.57;;
21822;SDS011;11074;48.596;9.238;2023-10-09T14:52:13;22.75;;;5.72;;
21822;SDS011;11074;48.596;9.238;2023-10-09T14:54:45;25.27;;;5.95;;
21822;SDS011;11074;48.596;9.238;2023-10-09T14:57:12;28.13;;;5.38;;
21822;SDS011;11074;48.596;9.238;2023-10-09T14:59:39;17.75;;;5.07;;
21822;SDS011;11074;48.596;9.238;2023-10-09T15:02:05;24.23;;;5.63;;
21822;SDS011;11074;48.596;9.238;2023-10-09T15:04:32;18.52;;;5.32;;
21822;SDS011;11074;48.596;9.238;2023-10-09T15:07:02;18.85;;;5.35;;
21822;SDS011;11074;48.596;9.238;2023-10-09T15:09:32;20.52;;;5.15;;
21822;SDS011;11074;48.596;9.238;2023-10-09T15:12:01;22.05;;;5.32;;
21822;SDS011;11074;48.596;9.238;2023-10-09T15:14:28;22.38;;;5.07;;
21822;SDS011;11074;48.596;9.238;2023-10-09T15:16:53;22.23;;;4.95;;
21822;SDS011;11074;48.596;9.238;2023-10-09T15:19:19;20.00;;;4.60;;
21822;SDS011;11074;48.596;9.238;2023-10-09T15:21:54;21.20;;;4.63;;
21822;SDS011;11074;48.596;9.238;2023-10-09T15:24:21;25.40;;;4.93;;
21822;SDS011;11074;48.596;9.238;2023-10-09T15:26:48;19.75;;;4.95;;
21822;SDS011;11074;48.596;9.238;2023-10-09T15:29:20;17.90;;;4.97;;
21822;SDS011;11074;48.596;9.238;2023-10-09T15:31:51;27.10;;;5.90;;
21822;SDS011;11074;48.596;9.238;2023-10-09T15:34:17;30.92;;;6.18;;
21822;SDS011;11074;48.596;9.238;2023-10-09T15:36:45;26.92;;;5.75;;
21822;SDS011;11074;48.596;9.238;2023-10-09T15:39:14;25.98;;;4.75;;
21822;SDS011;11074;48.596;9.238;2023-10-09T15:41:44;22.95;;;4.60;;
21822;SDS011;11074;48.596;9.238;2023-10-09T15:44:11;24.42;;;5.60;;
21822;SDS011;11074;48.596;9.238;2023-10-09T15:46:41;26.27;;;5.05;;
21822;SDS011;11074;48.596;9.238;2023-10-09T15:49:10;19.80;;;5.47;;
21822;SDS011;11074;48.596;9.238;2023-10-09T15:51:39;26.33;;;4.93;;